sensor_id;sensor_type;location;lat;lon;timestamp;temperature;humidity
8910;DHT22;4490;49.072;8.804;2023-08-31T00:01:54;16.00;99.90
8910;DHT22;4490;49.072;8.804;2023-08-31T00:04:20;16.00;99.90
8910;DHT22;4490;49.072;8.804;2023-08-31T00:06:45;16.00;99.90
8910;DHT22;4490;49.072;8.804;2023-08-31T00:09:12;16.00;99.90
8910;DHT22;4490;49.072;8.804;2023-08-31T00:11:38;16.00;99.90
8910;DHT22;4490;49.072;8.804;2023-08-31T00:14:04;16.00;99.90
8910;DHT22;4490;49.072;8.804;2023-08-31T00:16:30;16.00;99.90
8910;DHT22;4490;49.072;8.804;2023-08-31T00:18:58;16.00;99.90
8910;DHT22;4490;49.072;8.804;2023-08-31T00:21:25;16.00;99.90
8910;DHT22;4490;49.072;8.804;2023-08-31T00:23:50;16.00;99.90
8910;DHT22;4490;49.072;8.804;2023-08-31T00:26:16;16.00;99.90
8910;DHT22;4490;49.072;8.804;2023-08-31T00:28:42;16.00;99.90
8910;DHT22;4490;49.072;8.804;2023-08-31T00:31:09;16.00;99.90
8910;DHT22;4490;49.072;8.804;2023-08-31T00:33:37;16.00;99.90
8910;DHT22;4490;49.072;8.804;2023-08-31T00:36:03;16.00;99.90
8910;DHT22;4490;49.072;8.804;2023-08-31T00:38:32;16.00;99.90
8910;DHT22;4490;49.072;8.804;2023-08-31T00:40:57;16.00;99.90
8910;DHT22;4490;49.072;8.804;2023-08-31T00:43:23;15.90;99.90
8910;DHT22;4490;49.072;8.804;2023-08-31T00:45:50;15.90;99.90
8910;DHT22;4490;49.072;8.804;2023-08-31T00:48:17;15.90;99.90
8910;DHT22;4490;49.072;8.804;2023-08-31T00:50:44;15.90;99.90
8910;DHT22;4490;49.072;8.804;2023-08-31T00:53:11;15.90;99.90
8910;DHT22;4490;49.072;8.804;2023-08-31T00:55:37;15.90;99.90
8910;DHT22;4490;49.072;8.804;2023-08-31T00:58:05;15.90;99.90
8910;DHT22;4490;49.072;8.804;2023-08-31T01:01:10;15.90;99.90
8910;DHT22;4490;49.072;8.804;2023-08-31T01:04:18;15.90;99.90
8910;DHT22;4490;49.072;8.804;2023-08-31T01:07:03;15.90;99.90
8910;DHT22;4490;49.072;8.804;2023-08-31T01:09:42;15.90;99.90
8910;DHT22;4490;49.072;8.804;2023-08-31T01:12:17;15.90;99.90
8910;DHT22;4490;49.072;8.804;2023-08-31T01:15:03;15.90;99.90
8910;DHT22;4490;49.072;8.804;2023-08-31T01:17:30;15.90;99.90
8910;DHT22;4490;49.072;8.804;2023-08-31T01:19:59;15.90;99.90
8910;DHT22;4490;49.072;8.804;2023-08-31T01:22:38;15.90;99.90
8910;DHT22;4490;49.072;8.804;2023-08-31T01:25:08;15.90;99.90
8910;DHT22;4490;49.072;8.804;2023-08-31T01:27:35;15.90;99.90
8910;DHT22;4490;49.072;8.804;2023-08-31T01:30:02;16.00;99.90
8910;DHT22;4490;49.072;8.804;2023-08-31T01:32:30;16.00;99.90
8910;DHT22;4490;49.072;8.804;2023-08-31T01:34:56;16.00;99.90
8910;DHT22;4490;49.072;8.804;2023-08-31T01:37:30;16.00;99.90
8910;DHT22;4490;49.072;8.804;2023-08-31T01:40:01;16.00;99.90
8910;DHT22;4490;49.072;8.804;2023-08-31T01:42:29;16.00;99.90
8910;DHT22;4490;49.072;8.804;2023-08-31T01:44:57;15.90;99.90
8910;DHT22;4490;49.072;8.804;2023-08-31T01:47:25;15.90;99.90
8910;DHT22;4490;49.072;8.804;2023-08-31T01:49:51;15.90;99.90
8910;DHT22;4490;49.072;8.804;2023-08-31T01:52:17;15.90;99.90
8910;DHT22;4490;49.072;8.804;2023-08-31T01:54:43;15.90;99.90
8910;DHT22;4490;49.072;8.804;2023-08-31T01:57:08;15.90;99.90
8910;DHT22;4490;49.072;8.804;2023-08-31T01:59:34;15.90;99.90
8910;DHT22;4490;49.072;8.804;2023-08-31T02:02:00;15.90;99.90
8910;DHT22;4490;49.072;8.804;2023-08-31T02:04:26;15.90;99.90
8910;DHT22;4490;49.072;8.804;2023-08-31T02:06:52;15.80;99.90
8910;DHT22;4490;49.072;8.804;2023-08-31T02:09:18;15.80;99.90
8910;DHT22;4490;49.072;8.804;2023-08-31T02:11:43;15.80;99.90
8910;DHT22;4490;49.072;8.804;2023-08-31T02:14:09;15.80;99.90
8910;DHT22;4490;49.072;8.804;2023-08-31T02:16:34;15.80;99.90
8910;DHT22;4490;49.072;8.804;2023-08-31T02:19:00;15.80;99.90
8910;DHT22;4490;49.072;8.804;2023-08-31T02:21:26;15.80;99.90
8910;DHT22;4490;49.072;8.804;2023-08-31T02:23:51;15.80;99.90
8910;DHT22;4490;49.072;8.804;2023-08-31T02:26:17;15.80;99.90
8910;DHT22;4490;49.072;8.804;2023-08-31T02:28:42;15.70;99.90
8910;DHT22;4490;49.072;8.804;2023-08-31T02:31:10;15.80;99.90
8910;DHT22;4490;49.072;8.804;2023-08-31T02:33:37;15.80;99.90
8910;DHT22;4490;49.072;8.804;2023-08-31T02:36:02;15.80;99.90
8910;DHT22;4490;49.072;8.804;2023-08-31T02:38:28;15.80;99.90
8910;DHT22;4490;49.072;8.804;2023-08-31T02:40:54;15.80;99.90
8910;DHT22;4490;49.072;8.804;2023-08-31T02:43:19;15.80;99.90
8910;DHT22;4490;49.072;8.804;2023-08-31T02:45:45;15.80;99.90
8910;DHT22;4490;49.072;8.804;2023-08-31T02:48:11;15.80;99.90
8910;DHT22;4490;49.072;8.804;2023-08-31T02:50:37;15.90;99.90
8910;DHT22;4490;49.072;8.804;2023-08-31T02:53:03;15.90;99.90
8910;DHT22;4490;49.072;8.804;2023-08-31T02:55:29;15.80;99.90
8910;DHT22;4490;49.072;8.804;2023-08-31T02:57:57;15.80;99.90
8910;DHT22;4490;49.072;8.804;2023-08-31T03:00:22;15.80;99.90
8910;DHT22;4490;49.072;8.804;2023-08-31T03:02:48;15.80;99.90
8910;DHT22;4490;49.072;8.804;2023-08-31T03:05:15;15.80;99.90
8910;DHT22;4490;49.072;8.804;2023-08-31T03:07:41;15.80;99.90
8910;DHT22;4490;49.072;8.804;2023-08-31T03:10:07;15.80;99.90
8910;DHT22;4490;49.072;8.804;2023-08-31T03:12:33;15.80;99.90
8910;DHT22;4490;49.072;8.804;2023-08-31T03:14:58;15.80;99.90
8910;DHT22;4490;49.072;8.804;2023-08-31T03:17:24;15.80;99.90
8910;DHT22;4490;49.072;8.804;2023-08-31T03:19:49;15.80;99.90
8910;DHT22;4490;49.072;8.804;2023-08-31T03:22:15;15.80;99.90
8910;DHT22;4490;49.072;8.804;2023-08-31T03:24:41;15.80;99.90
8910;DHT22;4490;49.072;8.804;2023-08-31T03:27:06;15.80;99.90
8910;DHT22;4490;49.072;8.804;2023-08-31T03:29:32;15.80;99.90
8910;DHT22;4490;49.072;8.804;2023-08-31T03:31:59;15.70;99.90
8910;DHT22;4490;49.072;8.804;2023-08-31T03:34:29;15.70;99.90
8910;DHT22;4490;49.072;8.804;2023-08-31T03:36:56;15.80;99.90
8910;DHT22;4490;49.072;8.804;2023-08-31T03:39:21;15.70;99.90
8910;DHT22;4490;49.072;8.804;2023-08-31T03:41:47;15.70;99.90
8910;DHT22;4490;49.072;8.804;2023-08-31T03:44:13;15.70;99.90
8910;DHT22;4490;49.072;8.804;2023-08-31T03:46:38;15.70;99.90
8910;DHT22;4490;49.072;8.804;2023-08-31T03:49:04;15.70;99.90
8910;DHT22;4490;49.072;8.804;2023-08-31T03:51:29;15.70;99.90
8910;DHT22;4490;49.072;8.804;2023-08-31T03:53:55;15.70;99.90
8910;DHT22;4490;49.072;8.804;2023-08-31T03:56:22;15.70;99.90
8910;DHT22;4490;49.072;8.804;2023-08-31T03:58:48;15.70;99.90
8910;DHT22;4490;49.072;8.804;2023-08-31T04:01:13;15.70;99.90
8910;DHT22;4490;49.072;8.804;2023-08-31T04:03:41;15.60;99.90
8910;DHT22;4490;49.072;8.804;2023-08-31T04:06:07;15.60;99.90
8910;DHT22;4490;49.072;8.804;2023-08-31T04:08:32;15.60;99.90
8910;DHT22;4490;49.072;8.804;2023-08-31T04:10:58;15.60;99.90
8910;DHT22;4490;49.072;8.804;2023-08-31T04:13:24;15.60;99.90
8910;DHT22;4490;49.072;8.804;2023-08-31T04:15:49;15.60;99.90
8910;DHT22;4490;49.072;8.804;2023-08-31T04:18:15;15.60;99.90
8910;DHT22;4490;49.072;8.804;2023-08-31T04:20:48;15.60;99.90
8910;DHT22;4490;49.072;8.804;2023-08-31T04:23:15;15.60;99.90
8910;DHT22;4490;49.072;8.804;2023-08-31T04:25:40;15.60;99.90
8910;DHT22;4490;49.072;8.804;2023-08-31T04:28:07;15.60;99.90
8910;DHT22;4490;49.072;8.804;2023-08-31T04:30:33;15.60;99.90
8910;DHT22;4490;49.072;8.804;2023-08-31T04:32:58;15.60;99.90
8910;DHT22;4490;49.072;8.804;2023-08-31T04:35:24;15.60;99.90
8910;DHT22;4490;49.072;8.804;2023-08-31T04:37:50;15.60;99.90
8910;DHT22;4490;49.072;8.804;2023-08-31T04:40:15;15.50;99.90
8910;DHT22;4490;49.072;8.804;2023-08-31T04:42:42;15.50;99.90
8910;DHT22;4490;49.072;8.804;2023-08-31T04:45:07;15.50;99.90
8910;DHT22;4490;49.072;8.804;2023-08-31T04:47:33;15.50;99.90
8910;DHT22;4490;49.072;8.804;2023-08-31T04:49:58;15.50;99.90
8910;DHT22;4490;49.072;8.804;2023-08-31T04:52:25;15.50;99.90
8910;DHT22;4490;49.072;8.804;2023-08-31T04:54:50;15.50;99.90
8910;DHT22;4490;49.072;8.804;2023-08-31T04:57:16;15.50;99.90
8910;DHT22;4490;49.072;8.804;2023-08-31T04:59:42;15.50;99.90
8910;DHT22;4490;49.072;8.804;2023-08-31T05:02:07;15.50;99.90
8910;DHT22;4490;49.072;8.804;2023-08-31T05:04:33;15.50;99.90
8910;DHT22;4490;49.072;8.804;2023-08-31T05:06:58;15.50;99.90
8910;DHT22;4490;49.072;8.804;2023-08-31T05:09:24;15.50;99.90
8910;DHT22;4490;49.072;8.804;2023-08-31T05:11:50;15.50;99.90
8910;DHT22;4490;49.072;8.804;2023-08-31T05:14:16;15.50;99.90
8910;DHT22;4490;49.072;8.804;2023-08-31T05:16:42;15.50;99.90
8910;DHT22;4490;49.072;8.804;2023-08-31T05:19:07;15.50;99.90
8910;DHT22;4490;49.072;8.804;2023-08-31T05:21:33;15.50;99.90
8910;DHT22;4490;49.072;8.804;2023-08-31T05:23:59;15.60;99.90
8910;DHT22;4490;49.072;8.804;2023-08-31T05:26:24;15.60;99.90
8910;DHT22;4490;49.072;8.804;2023-08-31T05:28:50;15.60;99.90
8910;DHT22;4490;49.072;8.804;2023-08-31T05:31:15;15.60;99.90
8910;DHT22;4490;49.072;8.804;2023-08-31T05:33:41;15.50;99.90
8910;DHT22;4490;49.072;8.804;2023-08-31T05:36:07;15.50;99.90
8910;DHT22;4490;49.072;8.804;2023-08-31T05:38:32;15.50;99.90
8910;DHT22;4490;49.072;8.804;2023-08-31T05:41:08;15.50;99.90
8910;DHT22;4490;49.072;8.804;2023-08-31T05:43:34;15.60;99.90
8910;DHT22;4490;49.072;8.804;2023-08-31T05:46:00;15.60;99.90
8910;DHT22;4490;49.072;8.804;2023-08-31T05:48:26;15.60;99.90
8910;DHT22;4490;49.072;8.804;2023-08-31T05:50:52;15.60;99.90
8910;DHT22;4490;49.072;8.804;2023-08-31T05:53:17;15.60;99.90
8910;DHT22;4490;49.072;8.804;2023-08-31T05:55:43;15.60;99.90
8910;DHT22;4490;49.072;8.804;2023-08-31T05:58:09;15.60;99.90
8910;DHT22;4490;49.072;8.804;2023-08-31T06:00:34;15.60;99.90
8910;DHT22;4490;49.072;8.804;2023-08-31T06:03:01;15.60;99.90
8910;DHT22;4490;49.072;8.804;2023-08-31T06:05:28;15.60;99.90
8910;DHT22;4490;49.072;8.804;2023-08-31T06:07:57;15.70;99.90
8910;DHT22;4490;49.072;8.804;2023-08-31T06:10:22;15.70;99.90
8910;DHT22;4490;49.072;8.804;2023-08-31T06:12:49;15.70;99.90
8910;DHT22;4490;49.072;8.804;2023-08-31T06:15:18;15.70;99.90
8910;DHT22;4490;49.072;8.804;2023-08-31T06:17:44;15.70;99.90
8910;DHT22;4490;49.072;8.804;2023-08-31T06:20:10;15.80;99.90
8910;DHT22;4490;49.072;8.804;2023-08-31T06:22:36;15.80;99.90
8910;DHT22;4490;49.072;8.804;2023-08-31T06:25:02;15.80;99.90
8910;DHT22;4490;49.072;8.804;2023-08-31T06:27:31;15.80;99.90
8910;DHT22;4490;49.072;8.804;2023-08-31T06:29:56;15.90;99.90
8910;DHT22;4490;49.072;8.804;2023-08-31T06:32:22;15.90;99.90
8910;DHT22;4490;49.072;8.804;2023-08-31T06:34:51;15.90;99.90
8910;DHT22;4490;49.072;8.804;2023-08-31T06:37:17;16.00;99.90
8910;DHT22;4490;49.072;8.804;2023-08-31T06:39:43;16.00;99.90
8910;DHT22;4490;49.072;8.804;2023-08-31T06:42:08;16.00;99.90
8910;DHT22;4490;49.072;8.804;2023-08-31T06:44:34;16.00;99.90
8910;DHT22;4490;49.072;8.804;2023-08-31T06:46:59;16.10;99.90
8910;DHT22;4490;49.072;8.804;2023-08-31T06:49:25;16.10;99.90
8910;DHT22;4490;49.072;8.804;2023-08-31T06:51:51;16.20;99.90
8910;DHT22;4490;49.072;8.804;2023-08-31T06:54:19;16.20;99.90
8910;DHT22;4490;49.072;8.804;2023-08-31T06:56:44;16.30;99.90
8910;DHT22;4490;49.072;8.804;2023-08-31T06:59:10;16.40;99.90
8910;DHT22;4490;49.072;8.804;2023-08-31T07:01:36;16.40;99.90
8910;DHT22;4490;49.072;8.804;2023-08-31T07:04:01;16.40;99.90
8910;DHT22;4490;49.072;8.804;2023-08-31T07:06:27;16.40;99.90
8910;DHT22;4490;49.072;8.804;2023-08-31T07:08:53;16.40;99.90
8910;DHT22;4490;49.072;8.804;2023-08-31T07:11:19;16.40;99.90
8910;DHT22;4490;49.072;8.804;2023-08-31T07:13:44;16.50;99.90
8910;DHT22;4490;49.072;8.804;2023-08-31T07:16:10;16.50;99.90
8910;DHT22;4490;49.072;8.804;2023-08-31T07:18:36;16.50;99.90
8910;DHT22;4490;49.072;8.804;2023-08-31T07:21:02;16.50;99.90
8910;DHT22;4490;49.072;8.804;2023-08-31T07:23:30;16.50;99.90
8910;DHT22;4490;49.072;8.804;2023-08-31T07:25:58;16.50;99.90
8910;DHT22;4490;49.072;8.804;2023-08-31T07:28:25;16.60;99.90
8910;DHT22;4490;49.072;8.804;2023-08-31T07:31:03;16.60;99.90
8910;DHT22;4490;49.072;8.804;2023-08-31T07:33:30;16.60;99.90
8910;DHT22;4490;49.072;8.804;2023-08-31T07:35:57;16.70;99.90
8910;DHT22;4490;49.072;8.804;2023-08-31T07:38:24;16.80;99.90
8910;DHT22;4490;49.072;8.804;2023-08-31T07:40:50;16.90;99.90
8910;DHT22;4490;49.072;8.804;2023-08-31T07:43:15;17.00;99.90
8910;DHT22;4490;49.072;8.804;2023-08-31T07:45:41;17.00;99.90
8910;DHT22;4490;49.072;8.804;2023-08-31T07:48:06;17.10;99.90
8910;DHT22;4490;49.072;8.804;2023-08-31T07:50:33;17.20;99.90
8910;DHT22;4490;49.072;8.804;2023-08-31T07:52:59;17.20;99.90
8910;DHT22;4490;49.072;8.804;2023-08-31T07:55:25;17.30;99.90
8910;DHT22;4490;49.072;8.804;2023-08-31T07:57:51;17.40;99.90
8910;DHT22;4490;49.072;8.804;2023-08-31T08:00:16;17.50;99.90
8910;DHT22;4490;49.072;8.804;2023-08-31T08:02:44;17.60;99.90
8910;DHT22;4490;49.072;8.804;2023-08-31T08:05:10;17.70;99.90
8910;DHT22;4490;49.072;8.804;2023-08-31T08:07:35;17.90;99.90
8910;DHT22;4490;49.072;8.804;2023-08-31T08:10:01;18.00;99.90
8910;DHT22;4490;49.072;8.804;2023-08-31T08:12:27;18.10;99.90
8910;DHT22;4490;49.072;8.804;2023-08-31T08:14:52;18.20;99.90
8910;DHT22;4490;49.072;8.804;2023-08-31T08:17:18;18.20;99.90
8910;DHT22;4490;49.072;8.804;2023-08-31T08:19:43;18.30;99.90
8910;DHT22;4490;49.072;8.804;2023-08-31T08:22:09;18.40;99.90
8910;DHT22;4490;49.072;8.804;2023-08-31T08:24:35;18.40;99.90
8910;DHT22;4490;49.072;8.804;2023-08-31T08:27:00;18.40;99.90
8910;DHT22;4490;49.072;8.804;2023-08-31T08:29:26;18.50;99.90
8910;DHT22;4490;49.072;8.804;2023-08-31T08:31:51;18.50;99.90
8910;DHT22;4490;49.072;8.804;2023-08-31T08:34:17;18.60;99.90
8910;DHT22;4490;49.072;8.804;2023-08-31T08:36:43;18.70;99.90
8910;DHT22;4490;49.072;8.804;2023-08-31T08:39:08;18.80;98.60
8910;DHT22;4490;49.072;8.804;2023-08-31T08:41:35;18.80;97.00
8910;DHT22;4490;49.072;8.804;2023-08-31T08:44:03;19.00;96.60
8910;DHT22;4490;49.072;8.804;2023-08-31T08:46:31;19.00;95.70
8910;DHT22;4490;49.072;8.804;2023-08-31T08:48:59;19.20;94.00
8910;DHT22;4490;49.072;8.804;2023-08-31T08:51:26;19.20;93.00
8910;DHT22;4490;49.072;8.804;2023-08-31T08:53:52;19.30;93.20
8910;DHT22;4490;49.072;8.804;2023-08-31T08:56:19;19.40;92.10
8910;DHT22;4490;49.072;8.804;2023-08-31T08:58:44;19.40;91.80
8910;DHT22;4490;49.072;8.804;2023-08-31T09:01:10;19.50;91.90
8910;DHT22;4490;49.072;8.804;2023-08-31T09:03:37;19.50;91.50
8910;DHT22;4490;49.072;8.804;2023-08-31T09:06:03;19.60;91.30
8910;DHT22;4490;49.072;8.804;2023-08-31T09:08:33;19.80;91.10
8910;DHT22;4490;49.072;8.804;2023-08-31T09:10:59;20.00;90.90
8910;DHT22;4490;49.072;8.804;2023-08-31T09:13:29;20.20;90.40
8910;DHT22;4490;49.072;8.804;2023-08-31T09:15:55;20.40;89.40
8910;DHT22;4490;49.072;8.804;2023-08-31T09:18:30;20.50;88.00
8910;DHT22;4490;49.072;8.804;2023-08-31T09:21:00;20.70;86.10
8910;DHT22;4490;49.072;8.804;2023-08-31T09:23:26;20.80;83.60
8910;DHT22;4490;49.072;8.804;2023-08-31T09:25:53;21.10;83.80
8910;DHT22;4490;49.072;8.804;2023-08-31T09:28:21;21.20;81.50
8910;DHT22;4490;49.072;8.804;2023-08-31T09:30:49;21.40;81.00
8910;DHT22;4490;49.072;8.804;2023-08-31T09:33:16;21.60;80.00
8910;DHT22;4490;49.072;8.804;2023-08-31T09:35:55;21.80;79.00
8910;DHT22;4490;49.072;8.804;2023-08-31T09:38:21;22.00;77.90
8910;DHT22;4490;49.072;8.804;2023-08-31T09:40:46;22.20;76.60
8910;DHT22;4490;49.072;8.804;2023-08-31T09:43:22;22.30;75.50
8910;DHT22;4490;49.072;8.804;2023-08-31T09:45:48;22.50;75.50
8910;DHT22;4490;49.072;8.804;2023-08-31T09:48:15;22.70;75.40
8910;DHT22;4490;49.072;8.804;2023-08-31T09:50:43;22.80;74.90
8910;DHT22;4490;49.072;8.804;2023-08-31T09:53:10;22.90;74.20
8910;DHT22;4490;49.072;8.804;2023-08-31T09:55:39;23.00;73.80
8910;DHT22;4490;49.072;8.804;2023-08-31T09:58:07;23.10;73.70
8910;DHT22;4490;49.072;8.804;2023-08-31T10:00:35;23.30;74.40
8910;DHT22;4490;49.072;8.804;2023-08-31T10:03:03;23.60;73.90
8910;DHT22;4490;49.072;8.804;2023-08-31T10:05:30;23.70;72.00
8910;DHT22;4490;49.072;8.804;2023-08-31T10:07:57;23.70;69.90
8910;DHT22;4490;49.072;8.804;2023-08-31T10:10:24;23.60;70.10
8910;DHT22;4490;49.072;8.804;2023-08-31T10:12:50;23.60;69.90
8910;DHT22;4490;49.072;8.804;2023-08-31T10:15:18;23.60;68.00
8910;DHT22;4490;49.072;8.804;2023-08-31T10:17:43;23.40;67.80
8910;DHT22;4490;49.072;8.804;2023-08-31T10:20:11;23.30;68.30
8910;DHT22;4490;49.072;8.804;2023-08-31T10:22:37;23.40;69.00
8910;DHT22;4490;49.072;8.804;2023-08-31T10:25:04;23.70;69.40
8910;DHT22;4490;49.072;8.804;2023-08-31T10:27:44;24.00;68.40
8910;DHT22;4490;49.072;8.804;2023-08-31T10:38:24;24.40;65.80
8910;DHT22;4490;49.072;8.804;2023-08-31T10:43:55;24.30;65.00
8910;DHT22;4490;49.072;8.804;2023-08-31T10:46:33;24.20;67.00
8910;DHT22;4490;49.072;8.804;2023-08-31T10:51:42;24.40;66.60
8910;DHT22;4490;49.072;8.804;2023-08-31T10:54:31;24.50;65.40
8910;DHT22;4490;49.072;8.804;2023-08-31T10:59:27;24.30;64.60
8910;DHT22;4490;49.072;8.804;2023-08-31T11:02:06;24.00;64.60
8910;DHT22;4490;49.072;8.804;2023-08-31T11:04:53;23.80;65.20
8910;DHT22;4490;49.072;8.804;2023-08-31T11:07:23;23.60;64.70
8910;DHT22;4490;49.072;8.804;2023-08-31T11:09:49;23.40;66.40
8910;DHT22;4490;49.072;8.804;2023-08-31T11:12:15;23.10;66.40
8910;DHT22;4490;49.072;8.804;2023-08-31T11:14:41;22.80;66.40
8910;DHT22;4490;49.072;8.804;2023-08-31T11:17:07;22.60;67.30
8910;DHT22;4490;49.072;8.804;2023-08-31T11:19:34;22.40;67.80
8910;DHT22;4490;49.072;8.804;2023-08-31T11:22:03;22.20;68.50
8910;DHT22;4490;49.072;8.804;2023-08-31T11:24:33;22.10;68.80
8910;DHT22;4490;49.072;8.804;2023-08-31T11:26:59;21.90;68.90
8910;DHT22;4490;49.072;8.804;2023-08-31T11:29:29;21.70;68.40
8910;DHT22;4490;49.072;8.804;2023-08-31T11:31:56;21.60;69.20
8910;DHT22;4490;49.072;8.804;2023-08-31T11:34:23;21.50;69.00
8910;DHT22;4490;49.072;8.804;2023-08-31T11:36:49;21.50;69.60
8910;DHT22;4490;49.072;8.804;2023-08-31T11:39:14;21.50;69.80
8910;DHT22;4490;49.072;8.804;2023-08-31T11:41:42;21.60;70.30
8910;DHT22;4490;49.072;8.804;2023-08-31T11:44:14;21.70;70.20
8910;DHT22;4490;49.072;8.804;2023-08-31T11:46:43;21.90;69.60
8910;DHT22;4490;49.072;8.804;2023-08-31T11:49:09;22.00;69.20
8910;DHT22;4490;49.072;8.804;2023-08-31T11:51:36;22.20;69.40
8910;DHT22;4490;49.072;8.804;2023-08-31T11:54:04;22.40;70.00
8910;DHT22;4490;49.072;8.804;2023-08-31T11:59:14;22.90;69.10
8910;DHT22;4490;49.072;8.804;2023-08-31T12:01:42;23.00;68.70
8910;DHT22;4490;49.072;8.804;2023-08-31T12:04:15;23.10;68.40
8910;DHT22;4490;49.072;8.804;2023-08-31T12:06:41;23.10;68.20
8910;DHT22;4490;49.072;8.804;2023-08-31T12:09:08;23.20;67.80
8910;DHT22;4490;49.072;8.804;2023-08-31T12:11:34;23.30;68.40
8910;DHT22;4490;49.072;8.804;2023-08-31T12:14:06;23.50;69.30
8910;DHT22;4490;49.072;8.804;2023-08-31T12:16:43;23.70;68.80
8910;DHT22;4490;49.072;8.804;2023-08-31T12:19:09;23.90;68.60
8910;DHT22;4490;49.072;8.804;2023-08-31T12:21:35;24.00;67.10
8910;DHT22;4490;49.072;8.804;2023-08-31T12:24:01;24.10;67.30
8910;DHT22;4490;49.072;8.804;2023-08-31T12:26:28;24.20;65.70
8910;DHT22;4490;49.072;8.804;2023-08-31T12:28:54;24.10;65.70
8910;DHT22;4490;49.072;8.804;2023-08-31T12:31:21;24.00;65.50
8910;DHT22;4490;49.072;8.804;2023-08-31T12:33:47;23.90;66.50
8910;DHT22;4490;49.072;8.804;2023-08-31T12:36:12;23.80;64.90
8910;DHT22;4490;49.072;8.804;2023-08-31T12:38:38;23.70;65.60
8910;DHT22;4490;49.072;8.804;2023-08-31T12:41:04;23.60;65.90
8910;DHT22;4490;49.072;8.804;2023-08-31T12:43:30;23.50;65.80
8910;DHT22;4490;49.072;8.804;2023-08-31T12:45:56;23.40;66.30
8910;DHT22;4490;49.072;8.804;2023-08-31T12:48:22;23.30;66.70
8910;DHT22;4490;49.072;8.804;2023-08-31T12:50:48;23.20;66.30
8910;DHT22;4490;49.072;8.804;2023-08-31T12:53:14;23.10;66.50
8910;DHT22;4490;49.072;8.804;2023-08-31T12:55:40;23.10;67.30
8910;DHT22;4490;49.072;8.804;2023-08-31T12:58:06;23.10;67.20
8910;DHT22;4490;49.072;8.804;2023-08-31T13:00:31;23.00;66.70
8910;DHT22;4490;49.072;8.804;2023-08-31T13:02:57;23.00;66.80
8910;DHT22;4490;49.072;8.804;2023-08-31T13:05:23;23.00;66.40
8910;DHT22;4490;49.072;8.804;2023-08-31T13:07:48;22.90;66.50
8910;DHT22;4490;49.072;8.804;2023-08-31T13:10:14;22.90;65.70
8910;DHT22;4490;49.072;8.804;2023-08-31T13:12:40;22.80;66.50
8910;DHT22;4490;49.072;8.804;2023-08-31T13:15:06;22.80;67.00
8910;DHT22;4490;49.072;8.804;2023-08-31T13:17:33;22.70;67.20
8910;DHT22;4490;49.072;8.804;2023-08-31T13:19:59;22.60;67.00
8910;DHT22;4490;49.072;8.804;2023-08-31T13:22:25;22.60;67.50
8910;DHT22;4490;49.072;8.804;2023-08-31T13:24:51;22.50;67.90
8910;DHT22;4490;49.072;8.804;2023-08-31T13:27:17;22.40;68.30
8910;DHT22;4490;49.072;8.804;2023-08-31T13:29:43;22.30;68.10
8910;DHT22;4490;49.072;8.804;2023-08-31T13:32:09;22.30;68.00
8910;DHT22;4490;49.072;8.804;2023-08-31T13:34:36;22.20;67.90
8910;DHT22;4490;49.072;8.804;2023-08-31T13:37:04;22.10;67.70
8910;DHT22;4490;49.072;8.804;2023-08-31T13:39:30;22.00;68.00
8910;DHT22;4490;49.072;8.804;2023-08-31T13:41:56;21.90;68.20
8910;DHT22;4490;49.072;8.804;2023-08-31T13:44:22;22.00;69.40
8910;DHT22;4490;49.072;8.804;2023-08-31T13:46:48;22.20;69.60
8910;DHT22;4490;49.072;8.804;2023-08-31T13:49:14;22.30;69.00
8910;DHT22;4490;49.072;8.804;2023-08-31T13:51:41;22.40;68.40
8910;DHT22;4490;49.072;8.804;2023-08-31T13:54:07;22.40;68.40
8910;DHT22;4490;49.072;8.804;2023-08-31T13:56:33;22.40;68.80
8910;DHT22;4490;49.072;8.804;2023-08-31T13:58:59;22.40;68.80
8910;DHT22;4490;49.072;8.804;2023-08-31T14:01:25;22.30;68.60
8910;DHT22;4490;49.072;8.804;2023-08-31T14:03:51;22.20;68.50
8910;DHT22;4490;49.072;8.804;2023-08-31T14:06:16;22.10;68.80
8910;DHT22;4490;49.072;8.804;2023-08-31T14:08:42;22.10;68.90
8910;DHT22;4490;49.072;8.804;2023-08-31T14:11:08;22.00;68.70
8910;DHT22;4490;49.072;8.804;2023-08-31T14:13:33;21.90;68.80
8910;DHT22;4490;49.072;8.804;2023-08-31T14:16:00;21.90;68.90
8910;DHT22;4490;49.072;8.804;2023-08-31T14:18:29;21.80;69.00
8910;DHT22;4490;49.072;8.804;2023-08-31T14:20:57;21.80;69.50
8910;DHT22;4490;49.072;8.804;2023-08-31T14:23:24;21.80;69.60
8910;DHT22;4490;49.072;8.804;2023-08-31T14:25:50;21.70;69.80
8910;DHT22;4490;49.072;8.804;2023-08-31T14:28:15;21.70;69.90
8910;DHT22;4490;49.072;8.804;2023-08-31T14:30:41;21.60;69.90
8910;DHT22;4490;49.072;8.804;2023-08-31T14:33:07;21.60;70.20
8910;DHT22;4490;49.072;8.804;2023-08-31T14:35:36;21.60;70.50
8910;DHT22;4490;49.072;8.804;2023-08-31T14:38:02;21.60;70.80
8910;DHT22;4490;49.072;8.804;2023-08-31T14:40:28;21.50;70.90
8910;DHT22;4490;49.072;8.804;2023-08-31T14:42:54;21.50;71.10
8910;DHT22;4490;49.072;8.804;2023-08-31T14:45:20;21.50;71.00
8910;DHT22;4490;49.072;8.804;2023-08-31T14:47:45;21.40;70.70
8910;DHT22;4490;49.072;8.804;2023-08-31T14:50:11;21.40;70.00
8910;DHT22;4490;49.072;8.804;2023-08-31T14:52:36;21.40;70.40
8910;DHT22;4490;49.072;8.804;2023-08-31T14:55:02;21.40;70.20
8910;DHT22;4490;49.072;8.804;2023-08-31T14:57:29;21.40;70.40
8910;DHT22;4490;49.072;8.804;2023-08-31T14:59:55;21.40;70.60
8910;DHT22;4490;49.072;8.804;2023-08-31T15:02:24;21.50;70.60
8910;DHT22;4490;49.072;8.804;2023-08-31T15:04:49;21.60;70.60
8910;DHT22;4490;49.072;8.804;2023-08-31T15:07:16;21.70;70.30
8910;DHT22;4490;49.072;8.804;2023-08-31T15:09:42;21.80;70.60
8910;DHT22;4490;49.072;8.804;2023-08-31T15:12:08;21.90;70.70
8910;DHT22;4490;49.072;8.804;2023-08-31T15:14:34;22.00;70.50
8910;DHT22;4490;49.072;8.804;2023-08-31T15:16:59;22.00;70.50
8910;DHT22;4490;49.072;8.804;2023-08-31T15:19:25;22.10;70.70
8910;DHT22;4490;49.072;8.804;2023-08-31T15:21:51;22.10;70.20
8910;DHT22;4490;49.072;8.804;2023-08-31T15:24:16;22.00;69.90
8910;DHT22;4490;49.072;8.804;2023-08-31T15:26:42;22.00;69.60
8910;DHT22;4490;49.072;8.804;2023-08-31T15:29:09;21.90;69.60
8910;DHT22;4490;49.072;8.804;2023-08-31T15:31:34;21.90;69.70
8910;DHT22;4490;49.072;8.804;2023-08-31T15:34:00;21.80;70.10
8910;DHT22;4490;49.072;8.804;2023-08-31T15:36:26;21.70;70.00
8910;DHT22;4490;49.072;8.804;2023-08-31T15:38:51;21.60;70.10
8910;DHT22;4490;49.072;8.804;2023-08-31T15:41:17;21.50;70.80
8910;DHT22;4490;49.072;8.804;2023-08-31T15:43:43;21.50;71.60
8910;DHT22;4490;49.072;8.804;2023-08-31T15:46:09;21.40;71.80
8910;DHT22;4490;49.072;8.804;2023-08-31T15:48:34;21.30;72.30
8910;DHT22;4490;49.072;8.804;2023-08-31T15:51:00;21.30;72.40
8910;DHT22;4490;49.072;8.804;2023-08-31T15:53:26;21.30;72.60
8910;DHT22;4490;49.072;8.804;2023-08-31T15:55:53;21.30;73.30
8910;DHT22;4490;49.072;8.804;2023-08-31T15:58:19;21.20;73.70
8910;DHT22;4490;49.072;8.804;2023-08-31T16:00:46;21.20;73.80
8910;DHT22;4490;49.072;8.804;2023-08-31T16:03:12;21.20;73.90
8910;DHT22;4490;49.072;8.804;2023-08-31T16:05:38;21.20;74.00
8910;DHT22;4490;49.072;8.804;2023-08-31T16:08:04;21.20;74.00
8910;DHT22;4490;49.072;8.804;2023-08-31T16:10:30;21.20;74.40
8910;DHT22;4490;49.072;8.804;2023-08-31T16:12:56;21.20;74.60
8910;DHT22;4490;49.072;8.804;2023-08-31T16:15:25;21.10;74.40
8910;DHT22;4490;49.072;8.804;2023-08-31T16:17:52;21.20;74.40
8910;DHT22;4490;49.072;8.804;2023-08-31T16:20:18;21.20;74.70